Terminal Aerodrome Forecast
Issued by NWS

Home | Current Version | Previous Version | Text Only | Print | Product List | Glossary On
Versions: 1 2 3 4 5 6 7 8 9 10 11 12 13 14 15
271
FTUS43 KMQT 262328
TAFSAW
TAF
KSAW 262328Z 2700/2724 01010KT P6SM VCSH SCT025 BKN035
      TEMPO 2700/2702 BKN025
     FM270200 35006KT P6SM BKN040
     FM270600 34005KT P6SM SCT120
     FM271200 02005KT P6SM BKN035
     FM271600 03010KT P6SM BKN030
     FM272000 03010KT P6SM BKN035=

USA.gov is the U.S. government's official web portal to all federal, state and local government web resources and services.